createdAt,value
2022-09-21T00:00:12.920Z,27.40
2022-09-21T00:02:20.984Z,27.40
2022-09-21T00:04:25.318Z,27.40
2022-09-21T00:06:31.545Z,27.50
2022-09-21T00:08:39.990Z,27.50
2022-09-21T00:10:44.919Z,27.50
2022-09-21T00:12:49.659Z,27.50
2022-09-21T00:14:59.700Z,27.50
2022-09-21T00:17:04.358Z,27.50
2022-09-21T00:19:10.722Z,27.50
2022-09-21T00:21:17.911Z,27.50
2022-09-21T00:23:24.307Z,27.50
2022-09-21T00:25:29.096Z,27.60
2022-09-21T00:27:37.693Z,27.60
2022-09-21T00:29:42.042Z,27.60
2022-09-21T00:31:46.585Z,27.60
2022-09-21T00:33:57.661Z,27.70
2022-09-21T00:36:06.562Z,27.70
2022-09-21T00:38:12.422Z,27.70
2022-09-21T00:40:21.062Z,27.70
2022-09-21T00:42:29.220Z,27.70
2022-09-21T00:44:34.555Z,27.70
2022-09-21T00:46:43.058Z,27.80
2022-09-21T00:48:48.052Z,27.90
2022-09-21T00:50:54.932Z,27.90
2022-09-21T00:53:02.835Z,28.00
2022-09-21T00:55:24.049Z,28.00
2022-09-21T00:57:31.337Z,28.10
2022-09-21T00:59:38.512Z,28.00
2022-09-21T01:01:45.646Z,28.10
2022-09-21T01:03:50.746Z,28.10
2022-09-21T01:05:58.845Z,28.10
2022-09-21T01:08:09.211Z,28.20
2022-09-21T01:10:17.839Z,28.20
2022-09-21T01:12:56.681Z,28.20
2022-09-21T01:15:13.849Z,28.20
2022-09-21T01:17:18.144Z,28.20
2022-09-21T01:19:40.085Z,28.20
2022-09-21T01:21:54.979Z,28.20
2022-09-21T01:24:18.876Z,28.30
2022-09-21T01:26:35.315Z,28.30
2022-09-21T01:28:59.231Z,28.00
2022-09-21T01:31:08.420Z,28.00
2022-09-21T01:33:29.106Z,27.90
2022-09-21T01:35:51.166Z,28.00
2022-09-21T01:38:15.085Z,28.10
2022-09-21T01:40:34.549Z,28.20
2022-09-21T01:42:41.338Z,28.20
2022-09-21T01:44:46.498Z,28.20
2022-09-21T01:46:53.931Z,28.10
2022-09-21T01:49:01.593Z,28.20
2022-09-21T01:51:08.412Z,28.30
2022-09-21T01:53:39.561Z,28.30
2022-09-21T01:55:51.246Z,28.40
2022-09-21T01:58:23.777Z,28.20
2022-09-21T02:00:34.277Z,28.30
2022-09-21T02:02:54.735Z,28.40
2022-09-21T02:05:07.851Z,28.50
2022-09-21T02:07:18.988Z,28.70
2022-09-21T02:09:24.000Z,28.70
2022-09-21T02:11:30.294Z,28.80
2022-09-21T02:13:38.510Z,28.90
2022-09-21T02:15:53.270Z,29.00
2022-09-21T02:18:07.210Z,29.10
2022-09-21T02:20:31.305Z,29.30
2022-09-21T02:22:45.823Z,29.40
2022-09-21T02:25:05.316Z,29.50
2022-09-21T02:27:38.040Z,29.50
2022-09-21T02:30:06.419Z,29.60
2022-09-21T02:32:34.973Z,29.60
2022-09-21T02:34:51.105Z,29.60
2022-09-21T02:37:02.366Z,29.70
2022-09-21T02:39:12.062Z,29.80
2022-09-21T02:41:42.372Z,29.90
2022-09-21T02:43:59.890Z,29.90
2022-09-21T02:46:21.517Z,30.00
2022-09-21T02:48:36.215Z,30.10
2022-09-21T02:50:52.586Z,30.10
2022-09-21T02:53:05.317Z,30.10
2022-09-21T02:55:11.792Z,30.20
2022-09-21T02:57:24.130Z,30.30
2022-09-21T02:59:44.905Z,30.40
2022-09-21T03:01:51.231Z,30.50
2022-09-21T03:03:58.428Z,30.50
2022-09-21T03:06:06.432Z,30.50
2022-09-21T03:08:16.966Z,30.40
2022-09-21T03:10:26.636Z,30.40
2022-09-21T03:12:33.826Z,30.40
2022-09-21T03:14:54.411Z,30.50
2022-09-21T03:17:03.183Z,30.60
2022-09-21T03:19:16.627Z,30.60
2022-09-21T03:21:25.217Z,30.60
2022-09-21T03:23:32.866Z,30.60
2022-09-21T03:25:39.574Z,30.60
2022-09-21T03:27:44.922Z,30.70
2022-09-21T03:29:49.298Z,30.70
2022-09-21T03:31:57.067Z,30.70
2022-09-21T03:34:03.858Z,30.70
2022-09-21T03:36:09.265Z,30.70
2022-09-21T03:38:17.936Z,30.70
2022-09-21T03:40:25.262Z,30.70
2022-09-21T03:42:29.656Z,30.80
2022-09-21T03:44:38.204Z,30.90
2022-09-21T03:46:42.665Z,30.90
2022-09-21T03:48:49.738Z,30.90
2022-09-21T03:50:55.998Z,31.00
2022-09-21T03:53:01.788Z,31.10
2022-09-21T03:55:07.748Z,31.10
2022-09-21T03:57:14.916Z,31.20
2022-09-21T03:59:21.549Z,31.20
2022-09-21T04:01:27.036Z,31.30
2022-09-21T04:03:33.646Z,31.30
2022-09-21T04:05:47.135Z,31.40
2022-09-21T04:07:56.112Z,31.40
2022-09-21T04:10:04.433Z,31.50
2022-09-21T04:12:11.981Z,31.50
2022-09-21T04:14:19.739Z,31.50
2022-09-21T04:16:28.541Z,31.50
2022-09-21T04:18:49.364Z,31.50
2022-09-21T04:20:54.110Z,31.50
2022-09-21T04:22:59.564Z,31.50
2022-09-21T04:25:19.948Z,31.60
2022-09-21T04:27:30.779Z,31.50
2022-09-21T04:29:56.197Z,31.60
2022-09-21T04:32:03.495Z,31.60
2022-09-21T04:34:17.682Z,31.60
2022-09-21T04:36:23.568Z,31.60
2022-09-21T04:38:32.560Z,31.70
2022-09-21T04:40:38.013Z,31.70
2022-09-21T04:42:44.553Z,31.70
2022-09-21T04:44:51.642Z,31.80
2022-09-21T04:46:56.281Z,31.70
2022-09-21T04:49:04.055Z,31.70
2022-09-21T04:51:15.290Z,31.60
2022-09-21T04:53:19.978Z,31.60
2022-09-21T04:55:26.332Z,31.70
2022-09-21T04:57:43.620Z,31.70
2022-09-21T04:59:49.389Z,31.80
2022-09-21T05:01:59.375Z,31.80
2022-09-21T05:04:06.168Z,31.90
2022-09-21T05:06:12.701Z,31.90
2022-09-21T05:08:19.332Z,32.00
2022-09-21T05:10:30.055Z,31.90
2022-09-21T05:12:40.731Z,31.90
2022-09-21T05:14:48.251Z,32.00
2022-09-21T05:16:56.108Z,31.90
2022-09-21T05:19:00.631Z,31.90
2022-09-21T05:21:08.463Z,31.90
2022-09-21T05:23:16.902Z,32.00
2022-09-21T05:25:22.051Z,32.20
2022-09-21T05:27:28.031Z,32.20
2022-09-21T05:29:35.356Z,32.20
2022-09-21T05:31:44.018Z,32.20
2022-09-21T05:34:05.037Z,32.30
2022-09-21T05:36:41.791Z,32.30
2022-09-21T05:38:49.591Z,32.30
2022-09-21T05:40:55.994Z,32.40
2022-09-21T05:43:03.001Z,32.40
2022-09-21T05:45:08.348Z,32.40
2022-09-21T05:47:32.200Z,32.50
2022-09-21T05:49:57.295Z,32.60
2022-09-21T05:52:31.089Z,32.70
2022-09-21T05:54:45.605Z,32.80
2022-09-21T05:57:08.297Z,32.80
2022-09-21T05:59:37.489Z,32.70
2022-09-21T06:02:06.949Z,32.70
2022-09-21T06:04:16.655Z,32.60
2022-09-21T06:06:21.372Z,32.70
2022-09-21T06:08:28.101Z,32.80
2022-09-21T06:10:37.244Z,32.80
2022-09-21T06:12:42.347Z,32.90
2022-09-21T06:14:48.518Z,32.90
2022-09-21T06:16:56.335Z,32.90
2022-09-21T06:19:01.206Z,32.80
2022-09-21T06:21:08.305Z,32.90
2022-09-21T06:23:16.263Z,33.00
2022-09-21T06:25:23.327Z,33.00
2022-09-21T06:27:30.260Z,33.00
2022-09-21T06:29:40.963Z,33.00
2022-09-21T06:31:47.428Z,33.00
2022-09-21T06:33:57.078Z,33.00
2022-09-21T06:36:01.766Z,33.00
2022-09-21T06:38:16.243Z,32.90
2022-09-21T06:40:27.790Z,32.90
2022-09-21T06:42:34.373Z,32.90
2022-09-21T06:44:38.636Z,33.00
2022-09-21T06:46:45.071Z,33.00
2022-09-21T06:48:51.742Z,33.10
2022-09-21T06:51:04.187Z,33.20
2022-09-21T06:53:09.034Z,33.20
2022-09-21T06:55:15.976Z,33.10
2022-09-21T06:57:20.191Z,33.10
2022-09-21T06:59:28.277Z,33.20
2022-09-21T07:01:35.052Z,33.10
2022-09-21T07:03:40.352Z,33.10
2022-09-21T07:05:47.520Z,33.10
2022-09-21T07:07:53.931Z,33.10
2022-09-21T07:10:09.062Z,33.20
2022-09-21T07:12:22.030Z,33.20
2022-09-21T07:14:26.749Z,33.30
2022-09-21T07:16:32.231Z,33.30
2022-09-21T07:18:43.577Z,33.30
2022-09-21T07:20:50.186Z,33.40
2022-09-21T07:22:54.561Z,33.40
2022-09-21T07:25:02.662Z,33.40
2022-09-21T07:27:07.932Z,33.40
2022-09-21T07:29:12.492Z,33.30
2022-09-21T07:31:19.013Z,33.40
2022-09-21T07:33:24.803Z,33.40
2022-09-21T07:35:29.737Z,33.40
2022-09-21T07:37:36.419Z,33.50
2022-09-21T07:39:41.919Z,33.40
2022-09-21T07:41:47.091Z,33.40
2022-09-21T07:43:54.317Z,33.40
2022-09-21T07:46:06.731Z,33.40
2022-09-21T07:48:16.102Z,33.40
2022-09-21T07:50:30.619Z,33.40
2022-09-21T07:52:43.198Z,33.30
2022-09-21T07:55:07.911Z,33.40
2022-09-21T07:57:29.647Z,33.40
2022-09-21T07:59:46.600Z,33.40
2022-09-21T08:01:54.527Z,33.40
2022-09-21T08:04:06.172Z,33.40
2022-09-21T08:06:28.039Z,33.40
2022-09-21T08:08:38.130Z,33.40
2022-09-21T08:10:45.782Z,33.40
2022-09-21T08:12:52.601Z,33.40
2022-09-21T08:14:57.151Z,33.40
2022-09-21T08:17:05.239Z,33.40
2022-09-21T08:19:12.507Z,33.40
2022-09-21T08:21:16.914Z,33.40
2022-09-21T08:23:23.765Z,33.40
2022-09-21T08:25:29.235Z,33.40
2022-09-21T08:27:33.665Z,33.40
2022-09-21T08:29:41.088Z,33.30
2022-09-21T08:31:47.860Z,33.40
2022-09-21T08:33:52.737Z,33.30
2022-09-21T08:36:00.803Z,33.30
2022-09-21T08:38:06.956Z,33.30
2022-09-21T08:40:13.408Z,33.30
2022-09-21T08:42:26.437Z,33.30
2022-09-21T08:44:44.792Z,33.30
2022-09-21T08:46:59.829Z,33.30
2022-09-21T08:49:26.455Z,33.20
2022-09-21T08:51:33.701Z,33.20
2022-09-21T08:53:45.658Z,33.20
2022-09-21T08:55:53.349Z,33.20
2022-09-21T08:58:00.060Z,33.10
2022-09-21T09:00:06.162Z,33.10
2022-09-21T09:02:33.571Z,33.10
2022-09-21T09:05:02.372Z,33.10
2022-09-21T09:07:41.965Z,33.10
2022-09-21T09:10:00.927Z,33.00
2022-09-21T09:12:11.227Z,33.00
2022-09-21T09:14:28.391Z,33.00
2022-09-21T09:16:58.446Z,33.00
2022-09-21T09:19:27.933Z,33.00
2022-09-21T09:21:44.754Z,33.00
2022-09-21T09:24:05.585Z,33.00
2022-09-21T09:26:21.345Z,33.10
2022-09-21T09:28:30.680Z,33.10
2022-09-21T09:30:36.012Z,33.10
2022-09-21T09:32:58.624Z,33.00
2022-09-21T09:35:26.099Z,33.00
2022-09-21T09:37:34.610Z,33.00
2022-09-21T09:39:42.581Z,32.90
2022-09-21T09:42:11.817Z,33.00
2022-09-21T09:44:42.932Z,33.00
2022-09-21T09:47:14.666Z,33.00
2022-09-21T09:49:31.584Z,33.00
2022-09-21T09:51:38.676Z,32.90
2022-09-21T09:53:47.723Z,32.90
2022-09-21T09:55:53.512Z,32.90
2022-09-21T09:57:58.154Z,32.90
2022-09-21T10:00:11.935Z,33.00
2022-09-21T10:02:23.528Z,33.00
2022-09-21T10:04:33.692Z,32.90
2022-09-21T10:06:43.813Z,33.00
2022-09-21T10:08:50.530Z,33.00
2022-09-21T10:10:55.345Z,32.90
2022-09-21T10:13:16.250Z,32.90
2022-09-21T10:15:35.778Z,33.00
2022-09-21T10:17:44.089Z,32.90
2022-09-21T10:20:18.190Z,32.90
2022-09-21T10:22:28.027Z,32.80
2022-09-21T10:24:34.627Z,32.80
2022-09-21T10:26:51.784Z,32.80
2022-09-21T10:29:01.914Z,32.80
2022-09-21T10:31:20.151Z,32.80
2022-09-21T10:33:29.883Z,32.70
2022-09-21T10:35:36.117Z,32.60
2022-09-21T10:37:42.487Z,32.60
2022-09-21T10:39:52.919Z,32.60
2022-09-21T10:42:15.730Z,32.50
2022-09-21T10:44:21.904Z,32.50
2022-09-21T10:46:38.110Z,32.50
2022-09-21T10:48:48.812Z,32.40
2022-09-21T10:50:56.155Z,32.30
2022-09-21T10:53:21.230Z,32.20
2022-09-21T10:55:27.104Z,32.10
2022-09-21T10:57:33.661Z,32.00
2022-09-21T10:59:42.434Z,32.00
2022-09-21T11:01:48.271Z,32.00
2022-09-21T11:04:04.626Z,32.00
2022-09-21T11:06:36.935Z,32.00
2022-09-21T11:08:48.396Z,32.00
2022-09-21T11:11:05.940Z,31.90
2022-09-21T11:13:27.090Z,31.90
2022-09-21T11:15:45.571Z,31.90
2022-09-21T11:18:00.872Z,31.80
2022-09-21T11:20:13.121Z,31.80
2022-09-21T11:22:36.481Z,31.80
2022-09-21T11:24:58.837Z,31.70
2022-09-21T11:27:22.052Z,31.70
2022-09-21T11:30:08.324Z,31.70
2022-09-21T11:32:49.673Z,31.70
2022-09-21T11:35:12.386Z,31.70
2022-09-21T11:37:29.020Z,31.60
2022-09-21T11:40:25.185Z,31.60
2022-09-21T11:43:02.791Z,31.60
2022-09-21T11:45:34.947Z,31.60
2022-09-21T11:47:57.621Z,31.50
2022-09-21T11:50:30.561Z,31.50
2022-09-21T11:53:08.615Z,31.50
2022-09-21T11:55:37.519Z,31.50
2022-09-21T11:57:55.152Z,31.40
2022-09-21T12:00:18.410Z,31.40
2022-09-21T12:02:37.578Z,31.40
2022-09-21T12:05:23.917Z,31.40
2022-09-21T12:07:45.585Z,31.40
2022-09-21T12:09:57.946Z,31.40
2022-09-21T12:12:04.667Z,31.30
2022-09-21T12:14:18.615Z,31.30
2022-09-21T12:16:36.159Z,31.30
2022-09-21T12:18:58.039Z,31.30
2022-09-21T12:21:12.681Z,31.20
2022-09-21T12:23:27.848Z,31.10
2022-09-21T12:25:43.680Z,30.80
2022-09-21T12:27:53.223Z,30.40
2022-09-21T12:30:04.025Z,30.40
2022-09-21T12:32:33.237Z,30.40
2022-09-21T12:34:51.502Z,30.40
2022-09-21T12:37:09.685Z,30.30
2022-09-21T12:39:22.168Z,30.20
2022-09-21T12:41:47.931Z,30.20
2022-09-21T12:44:17.186Z,30.20
2022-09-21T12:46:28.604Z,30.10
2022-09-21T12:48:53.881Z,30.10
2022-09-21T12:51:14.713Z,30.10
2022-09-21T12:53:27.079Z,30.00
2022-09-21T12:56:06.506Z,30.10
2022-09-21T12:58:26.295Z,30.20
2022-09-21T13:00:39.314Z,30.30
2022-09-21T13:02:59.903Z,30.30
2022-09-21T13:05:27.068Z,30.10
2022-09-21T13:07:59.962Z,30.10
2022-09-21T13:10:24.543Z,30.20
2022-09-21T13:12:35.777Z,30.20
2022-09-21T13:14:47.200Z,30.10
2022-09-21T13:17:03.907Z,30.10
2022-09-21T13:19:15.010Z,30.00
2022-09-21T13:21:23.539Z,29.90
2022-09-21T13:23:40.686Z,29.80
2022-09-21T13:25:49.903Z,29.50
2022-09-21T13:28:16.880Z,29.40
2022-09-21T13:30:42.585Z,29.30
2022-09-21T13:32:55.213Z,29.00
2022-09-21T13:35:22.179Z,29.10
2022-09-21T13:37:32.869Z,29.40
2022-09-21T13:39:37.095Z,29.10
2022-09-21T13:44:35.972Z,29.30
2022-09-21T13:46:44.013Z,29.00
2022-09-21T13:48:49.854Z,28.10
2022-09-21T13:51:00.586Z,27.90
2022-09-21T13:53:11.360Z,27.80
2022-09-21T13:55:37.165Z,27.70
2022-09-21T13:57:51.546Z,27.70
2022-09-21T14:00:14.876Z,27.50
2022-09-21T14:02:36.080Z,27.40
2022-09-21T14:04:42.458Z,27.30
2022-09-21T14:06:48.869Z,27.30
2022-09-21T14:08:57.901Z,27.60
2022-09-21T14:11:09.139Z,27.90
2022-09-21T14:13:33.041Z,28.30
2022-09-21T14:15:40.470Z,28.60
2022-09-21T14:17:45.076Z,28.20
2022-09-21T14:19:56.590Z,28.30
2022-09-21T14:22:10.508Z,28.60
2022-09-21T14:24:23.925Z,28.70
2022-09-21T14:26:35.683Z,28.90
2022-09-21T14:28:51.171Z,28.90
2022-09-21T14:31:01.926Z,28.90
2022-09-21T14:33:24.254Z,28.90
2022-09-21T14:35:36.622Z,29.00
2022-09-21T14:37:44.353Z,29.00
2022-09-21T14:39:49.273Z,29.00
2022-09-21T14:41:58.588Z,29.00
2022-09-21T14:44:05.416Z,29.00
2022-09-21T14:46:23.297Z,29.00
2022-09-21T14:48:42.335Z,28.80
2022-09-21T14:51:15.901Z,28.80
2022-09-21T14:53:20.791Z,28.70
2022-09-21T14:55:50.021Z,28.70
2022-09-21T14:58:23.165Z,28.70
2022-09-21T15:00:42.141Z,28.70
2022-09-21T15:03:05.935Z,28.70
2022-09-21T15:05:12.125Z,28.60
2022-09-21T15:07:48.043Z,28.60
2022-09-21T15:10:31.214Z,28.60
2022-09-21T15:13:00.813Z,28.50
2022-09-21T15:15:34.621Z,28.50
2022-09-21T15:17:40.058Z,28.50
2022-09-21T15:19:45.055Z,28.50
2022-09-21T15:21:55.492Z,28.50
2022-09-21T15:24:01.254Z,28.50
2022-09-21T15:26:10.971Z,28.50
2022-09-21T15:28:21.402Z,28.30
2022-09-21T15:30:31.101Z,28.40
2022-09-21T15:32:43.554Z,28.40
2022-09-21T15:35:01.942Z,28.40
2022-09-21T15:37:14.029Z,28.40
2022-09-21T15:39:27.638Z,28.30
2022-09-21T15:41:45.051Z,28.30
2022-09-21T15:43:51.123Z,28.20
2022-09-21T15:46:03.048Z,28.20
2022-09-21T15:48:15.780Z,28.20
2022-09-21T15:50:22.423Z,28.20
2022-09-21T15:52:35.748Z,28.20
2022-09-21T15:54:46.461Z,28.20
2022-09-21T15:56:51.041Z,28.10
2022-09-21T15:59:10.010Z,28.00
2022-09-21T16:01:22.526Z,28.10
2022-09-21T16:03:30.781Z,28.10
2022-09-21T16:05:46.194Z,28.10
2022-09-21T16:07:52.904Z,27.90
2022-09-21T16:09:57.933Z,27.90
2022-09-21T16:12:02.309Z,27.90
2022-09-21T16:14:27.472Z,27.90
2022-09-21T16:16:32.315Z,27.90
2022-09-21T16:18:52.805Z,27.90
2022-09-21T16:21:02.526Z,27.90
2022-09-21T16:23:12.653Z,28.00
2022-09-21T16:25:38.668Z,28.00
2022-09-21T16:27:52.315Z,28.00
2022-09-21T16:29:58.339Z,27.90
2022-09-21T16:32:24.364Z,27.90
2022-09-21T16:34:38.544Z,27.90
2022-09-21T16:36:43.511Z,27.90
2022-09-21T16:38:51.438Z,27.90
2022-09-21T16:41:00.150Z,27.90
2022-09-21T16:43:06.347Z,27.90
2022-09-21T16:45:14.624Z,27.90
2022-09-21T16:47:31.217Z,27.90
2022-09-21T16:49:36.617Z,27.90
2022-09-21T16:51:43.463Z,27.90
2022-09-21T16:53:52.411Z,27.90
2022-09-21T16:55:56.814Z,27.90
2022-09-21T16:58:01.563Z,27.80
2022-09-21T17:00:11.915Z,27.80
2022-09-21T17:02:18.861Z,27.80
2022-09-21T17:04:24.234Z,27.70
2022-09-21T17:06:29.595Z,27.50
2022-09-21T17:08:35.067Z,27.50
2022-09-21T17:10:49.917Z,27.40
2022-09-21T17:12:56.966Z,27.50
2022-09-21T17:15:01.872Z,27.40
2022-09-21T17:17:12.497Z,27.30
2022-09-21T17:19:22.089Z,27.30
2022-09-21T17:21:26.344Z,27.40
2022-09-21T17:23:31.967Z,27.40
2022-09-21T17:25:40.697Z,27.50
2022-09-21T17:27:47.159Z,27.40
2022-09-21T17:29:51.939Z,27.40
2022-09-21T17:32:00.816Z,27.50
2022-09-21T17:34:13.488Z,27.50
2022-09-21T17:36:19.129Z,27.50
2022-09-21T17:38:25.912Z,27.50
2022-09-21T17:40:33.612Z,27.50
2022-09-21T17:42:41.125Z,27.50
2022-09-21T17:44:48.578Z,27.50
2022-09-21T17:47:14.674Z,27.50
2022-09-21T17:49:19.909Z,27.50
2022-09-21T17:51:38.959Z,27.50
2022-09-21T17:53:45.780Z,27.50
2022-09-21T17:55:55.530Z,27.50
2022-09-21T17:58:27.685Z,27.40
2022-09-21T18:00:39.883Z,27.20
2022-09-21T18:02:45.341Z,27.20
2022-09-21T18:04:57.432Z,27.20
2022-09-21T18:07:07.673Z,27.30
2022-09-21T18:09:14.823Z,27.30
2022-09-21T18:11:41.543Z,27.20
2022-09-21T18:14:06.924Z,27.20
2022-09-21T18:16:25.064Z,27.30
2022-09-21T18:18:59.086Z,27.20
2022-09-21T18:21:14.381Z,27.10
2022-09-21T18:23:32.911Z,27.00
2022-09-21T18:25:50.702Z,27.00
2022-09-21T18:28:08.037Z,27.10
2022-09-21T18:30:27.300Z,27.10
2022-09-21T18:32:52.578Z,27.10
2022-09-21T18:35:20.316Z,27.00
2022-09-21T18:37:39.105Z,27.00
2022-09-21T18:40:23.946Z,27.10
2022-09-21T18:42:40.550Z,27.00
2022-09-21T18:44:50.441Z,27.00
2022-09-21T18:47:03.049Z,26.80
2022-09-21T18:49:19.786Z,26.80
2022-09-21T18:51:45.697Z,27.00
2022-09-21T18:53:58.928Z,27.00
2022-09-21T18:56:03.622Z,27.00
2022-09-21T18:58:08.230Z,27.10
2022-09-21T19:00:20.326Z,27.10
2022-09-21T19:02:27.176Z,27.20
2022-09-21T19:04:31.876Z,27.10
2022-09-21T19:07:02.184Z,27.20
2022-09-21T19:09:30.899Z,27.10
2022-09-21T19:11:53.396Z,27.20
2022-09-21T19:14:22.999Z,27.20
2022-09-21T19:16:46.679Z,27.20
2022-09-21T19:19:28.277Z,27.20
2022-09-21T19:21:42.297Z,27.10
2022-09-21T19:23:46.849Z,27.20
2022-09-21T19:25:56.546Z,27.10
2022-09-21T19:28:05.576Z,27.10
2022-09-21T19:30:15.397Z,27.10
2022-09-21T19:32:43.504Z,27.10
2022-09-21T19:34:48.598Z,27.10
2022-09-21T19:36:53.200Z,27.20
2022-09-21T19:39:02.001Z,27.10
2022-09-21T19:41:19.895Z,27.20
2022-09-21T19:43:33.335Z,27.20
2022-09-21T19:45:50.571Z,27.20
2022-09-21T19:47:56.586Z,27.10
2022-09-21T19:50:14.332Z,26.90
2022-09-21T19:52:21.109Z,26.80
2022-09-21T19:54:39.886Z,26.90
2022-09-21T19:57:02.364Z,26.80
2022-09-21T19:59:24.141Z,26.90
2022-09-21T20:01:29.828Z,26.90
2022-09-21T20:03:40.419Z,26.90
2022-09-21T20:05:52.483Z,27.00
2022-09-21T20:08:00.663Z,27.00
2022-09-21T20:10:31.488Z,27.00
2022-09-21T20:12:47.052Z,27.00
2022-09-21T20:14:58.779Z,27.00
2022-09-21T20:17:09.597Z,26.90
2022-09-21T20:19:29.485Z,26.90
2022-09-21T20:21:41.273Z,26.90
2022-09-21T20:23:56.635Z,26.80
2022-09-21T20:26:09.014Z,26.80
2022-09-21T20:28:16.115Z,26.80
2022-09-21T20:30:33.686Z,26.90
2022-09-21T20:32:44.652Z,26.90
2022-09-21T20:34:51.288Z,26.90
2022-09-21T20:37:02.274Z,26.90
2022-09-21T20:39:13.375Z,26.90
2022-09-21T20:41:20.401Z,26.90
2022-09-21T20:43:32.576Z,26.80
2022-09-21T20:45:42.915Z,26.80
2022-09-21T20:47:51.637Z,26.80
2022-09-21T20:50:00.792Z,26.80
2022-09-21T20:52:12.388Z,26.80
2022-09-21T20:54:18.257Z,26.80
2022-09-21T20:56:22.724Z,26.60
2022-09-21T20:58:32.390Z,26.50
2022-09-21T21:00:37.728Z,26.40
2022-09-21T21:02:43.607Z,26.40
2022-09-21T21:04:52.329Z,26.40
2022-09-21T21:06:59.473Z,26.40
2022-09-21T21:09:04.022Z,26.50
2022-09-21T21:11:13.977Z,26.50
2022-09-21T21:13:20.306Z,26.40
2022-09-21T21:15:25.354Z,26.40
2022-09-21T21:17:34.708Z,26.30
2022-09-21T21:19:39.318Z,26.40
2022-09-21T21:21:45.064Z,26.40
2022-09-21T21:24:06.961Z,26.40
2022-09-21T21:26:12.156Z,26.40
2022-09-21T21:28:19.238Z,26.50
2022-09-21T21:30:27.453Z,26.40
2022-09-21T21:32:33.593Z,26.30
2022-09-21T21:34:41.484Z,26.30
2022-09-21T21:36:48.486Z,26.30
2022-09-21T21:38:53.160Z,26.30
2022-09-21T21:41:00.289Z,26.40
2022-09-21T21:43:07.317Z,26.30
2022-09-21T21:45:12.539Z,26.40
2022-09-21T21:49:46.877Z,26.30
2022-09-21T21:51:52.221Z,26.30
2022-09-21T21:53:59.706Z,26.30
2022-09-21T21:56:07.169Z,26.40
2022-09-21T21:58:14.309Z,26.40
2022-09-21T22:00:21.597Z,26.40
2022-09-21T22:02:32.691Z,26.40
2022-09-21T22:04:37.380Z,26.30
2022-09-21T22:06:44.350Z,26.30
2022-09-21T22:08:52.653Z,26.40
2022-09-21T22:10:57.404Z,26.50
2022-09-21T22:13:04.666Z,26.50
2022-09-21T22:15:12.279Z,26.60
2022-09-21T22:17:20.248Z,26.60
2022-09-21T22:19:28.536Z,26.60
2022-09-21T22:21:36.308Z,26.60
2022-09-21T22:23:41.107Z,26.40
2022-09-21T22:25:49.525Z,26.40
2022-09-21T22:28:10.854Z,26.20
2022-09-21T22:30:15.629Z,26.20
2022-09-21T22:32:25.581Z,26.30
2022-09-21T22:34:43.654Z,26.20
2022-09-21T22:36:52.036Z,26.40
2022-09-21T22:38:59.130Z,26.40
2022-09-21T22:41:13.293Z,26.30
2022-09-21T22:43:21.041Z,26.30
2022-09-21T22:45:39.942Z,26.10
2022-09-21T22:48:06.104Z,26.00
2022-09-21T22:50:13.885Z,26.10
2022-09-21T22:52:26.396Z,26.20
2022-09-21T22:54:33.350Z,26.20
2022-09-21T22:56:40.419Z,26.20
2022-09-21T22:58:51.029Z,26.20
2022-09-21T23:01:09.456Z,26.20
2022-09-21T23:03:23.085Z,26.20
2022-09-21T23:05:30.086Z,26.20
2022-09-21T23:07:41.095Z,26.30
2022-09-21T23:09:52.359Z,26.20
2022-09-21T23:11:59.044Z,26.20
2022-09-21T23:14:05.894Z,26.20
2022-09-21T23:16:14.931Z,26.30
2022-09-21T23:18:21.126Z,26.30
2022-09-21T23:20:34.356Z,26.20
2022-09-21T23:22:39.820Z,26.30
2022-09-21T23:24:46.680Z,26.30
2022-09-21T23:26:54.326Z,26.30
2022-09-21T23:29:03.856Z,26.20
2022-09-21T23:31:14.109Z,26.20
2022-09-21T23:33:24.026Z,26.30
2022-09-21T23:35:30.077Z,26.30
2022-09-21T23:37:54.247Z,26.30
2022-09-21T23:40:07.744Z,26.40
2022-09-21T23:42:17.554Z,26.50
2022-09-21T23:44:41.788Z,26.50
2022-09-21T23:46:50.609Z,26.60
2022-09-21T23:49:00.779Z,26.50
2022-09-21T23:51:25.299Z,26.40
2022-09-21T23:53:37.941Z,26.40
2022-09-21T23:55:51.287Z,26.40
2022-09-21T23:58:02.382Z,26.50
